Time;durP1;ratioP1;P1;durP2;ratioP2;P2;SDS_P1;SDS_P2;PMS_P1;PMS_P2;Temp;Humidity;BMP_temperature;BMP_pressure;BME280_temperature;BME280_humidity;BME280_pressure;Samples;Min_cycle;Max_cycle;Signal;HPM_P1;HPM_P2
2022/08/02 00:01:43;;;;;;;2.80;1.87;;;;;;;20.89;72.78;100237.84;5587445;31;34951;-68
2022/08/02 00:04:46;;;;;;;2.28;1.87;;;;;;;20.75;73.73;100232.75;5588103;31;35499;-68
2022/08/02 00:07:49;;;;;;;3.15;1.85;;;;;;;20.59;75.87;100238.03;5588146;31;34940;-68
2022/08/02 00:10:52;;;;;;;1.90;1.70;;;;;;;20.53;76.49;100238.97;5587282;31;34330;-68
2022/08/02 00:13:55;;;;;;;3.60;2.47;;;;;;;20.42;77.07;100239.81;5587183;31;33015;-68
2022/08/02 00:16:58;;;;;;;3.20;2.10;;;;;;;20.32;77.71;100235.84;5587948;31;34273;-68
2022/08/02 00:20:04;;;;;;;3.65;2.00;;;;;;;20.25;77.38;100236.97;5587945;31;34840;-68
2022/08/02 00:23:07;;;;;;;2.62;2.08;;;;;;;20.23;77.11;100229.12;5587075;31;34299;-67
2022/08/02 00:26:10;;;;;;;3.78;2.30;;;;;;;20.20;78.53;100232.28;5587763;31;34258;-68
2022/08/02 00:29:13;;;;;;;3.87;2.50;;;;;;;20.22;78.29;100240.13;5587662;31;34128;-68
2022/08/02 00:32:15;;;;;;;4.65;2.28;;;;;;;20.17;78.43;100240.00;5587974;31;34962;-68
2022/08/02 00:35:19;;;;;;;4.82;2.40;;;;;;;20.25;77.91;100234.25;5587512;31;34891;-68
2022/08/02 00:38:21;;;;;;;4.50;2.40;;;;;;;20.22;79.27;100232.06;5590145;31;34259;-68
2022/08/02 00:41:24;;;;;;;3.62;2.20;;;;;;;20.14;78.54;100238.59;5590798;31;34891;-68
2022/08/02 00:44:27;;;;;;;5.60;2.20;;;;;;;20.22;78.09;100237.44;5590807;31;34819;-68
2022/08/02 00:47:30;;;;;;;3.53;2.55;;;;;;;20.29;78.35;100230.03;5590331;31;34939;-68
2022/08/02 00:50:34;;;;;;;3.10;2.03;;;;;;;20.23;78.65;100236.41;5590278;31;34461;-68
2022/08/02 00:53:37;;;;;;;2.85;2.20;;;;;;;20.11;78.60;100240.94;5590204;31;34936;-68
2022/08/02 00:56:40;;;;;;;2.85;1.98;;;;;;;20.03;79.34;100244.81;5590648;31;34851;-68
2022/08/02 00:59:52;;;;;;;3.87;2.35;;;;;;;19.93;79.89;100242.69;5590552;31;34354;-68
2022/08/02 01:02:55;;;;;;;4.65;2.20;;;;;;;19.87;80.28;100250.87;5590304;31;34204;-68
2022/08/02 01:05:58;;;;;;;4.65;2.28;;;;;;;19.82;80.60;100248.03;5590510;31;34170;-68
2022/08/02 01:09:12;;;;;;;4.05;2.00;;;;;;;19.81;80.34;100258.00;5590343;31;34954;-68
2022/08/02 01:12:15;;;;;;;2.33;2.00;;;;;;;19.73;81.01;100261.03;5590281;31;35711;-68
2022/08/02 01:15:20;;;;;;;3.67;2.20;;;;;;;19.69;81.51;100256.31;5590265;31;34776;-68
2022/08/02 01:18:42;;;;;;;2.90;2.25;;;;;;;19.67;81.92;100266.50;5590622;31;34187;-68
2022/08/02 01:22:14;;;;;;;4.82;2.25;;;;;;;19.72;82.19;100258.56;5590271;31;34227;-68
2022/08/02 01:25:38;;;;;;;3.85;1.95;;;;;;;19.90;82.14;100261.16;5590050;31;35603;-68
2022/08/02 01:28:49;;;;;;;2.22;2.03;;;;;;;20.00;81.84;100260.59;5589450;31;33289;-68
2022/08/02 01:31:57;;;;;;;2.58;2.20;;;;;;;20.02;82.28;100262.00;5589051;31;33496;-68
2022/08/02 01:35:09;;;;;;;2.90;2.47;;;;;;;19.99;82.07;100259.78;5590333;31;34166;-68
2022/08/02 01:38:28;;;;;;;2.67;2.40;;;;;;;19.98;82.51;100251.94;5589771;31;34334;-69
2022/08/02 01:41:33;;;;;;;4.65;2.45;;;;;;;19.96;83.31;100244.09;5589899;31;34214;-68
2022/08/02 01:44:39;;;;;;;4.28;2.58;;;;;;;19.92;84.13;100251.81;5589774;31;35499;-68
2022/08/02 01:47:45;;;;;;;3.58;2.40;;;;;;;19.80;85.18;100250.16;5589060;31;34884;-68
2022/08/02 01:50:50;;;;;;;4.28;2.40;;;;;;;19.78;85.57;100253.06;5588922;31;33497;-68
2022/08/02 01:53:53;;;;;;;3.12;2.28;;;;;;;19.69;85.83;100256.31;5589140;31;34265;-68
2022/08/02 01:57:00;;;;;;;3.42;2.40;;;;;;;19.58;87.46;100265.19;5589942;31;34986;-68
2022/08/02 02:00:06;;;;;;;4.43;2.20;;;;;;;19.46;88.04;100267.84;5589784;31;34310;-68
2022/08/02 02:03:16;;;;;;;5.12;2.55;;;;;;;19.50;87.53;100272.53;5589064;31;34857;-67
2022/08/02 02:06:21;;;;;;;3.95;2.67;;;;;;;19.61;87.23;100283.56;5589686;31;35453;-68
2022/08/02 02:09:30;;;;;;;3.15;2.60;;;;;;;19.60;87.99;100285.44;5588960;31;35456;-68
2022/08/02 02:12:35;;;;;;;3.30;2.40;;;;;;;19.59;88.31;100286.50;5589655;31;34832;-68
2022/08/02 02:15:43;;;;;;;4.10;2.65;;;;;;;19.57;89.09;100293.12;5589727;31;34168;-68
2022/08/02 02:18:49;;;;;;;3.35;2.60;;;;;;;19.50;89.28;100294.06;5589624;31;34264;-68
2022/08/02 02:21:52;;;;;;;3.78;2.67;;;;;;;19.39;90.16;100300.19;5589992;31;34171;-68
2022/08/02 02:24:56;;;;;;;3.62;2.67;;;;;;;19.32;90.96;100295.91;5589520;31;34193;-68
2022/08/02 02:28:05;;;;;;;2.78;2.47;;;;;;;19.26;91.38;100294.16;5589472;31;34196;-67
2022/08/02 02:31:18;;;;;;;3.95;2.50;;;;;;;19.28;90.98;100298.25;5589475;31;34217;-68
2022/08/02 02:34:27;;;;;;;4.68;2.50;;;;;;;19.24;91.19;100309.69;5589904;31;34910;-68
2022/08/02 02:37:32;;;;;;;3.37;2.78;;;;;;;19.21;90.88;100308.28;5589422;31;34195;-67
2022/08/02 02:40:37;;;;;;;3.67;2.72;;;;;;;19.28;90.40;100300.94;5589201;31;34991;-68
2022/08/02 02:43:41;;;;;;;3.95;2.90;;;;;;;19.27;89.81;100296.59;5589393;31;34181;-68
2022/08/02 02:46:45;;;;;;;5.00;2.72;;;;;;;19.27;90.04;100311.91;5589302;31;35569;-68
2022/08/02 02:49:50;;;;;;;3.08;2.40;;;;;;;19.24;90.35;100312.38;5588564;31;34897;-68
2022/08/02 02:52:53;;;;;;;3.22;2.87;;;;;;;19.16;90.49;100296.56;5589393;31;33671;-68
2022/08/02 02:55:56;;;;;;;3.53;2.83;;;;;;;19.14;90.38;100312.91;5589227;31;34865;-68
2022/08/02 02:59:06;;;;;;;4.20;2.80;;;;;;;19.26;89.91;100304.91;5588736;31;35437;-68
2022/08/02 03:02:10;;;;;;;3.70;2.40;;;;;;;19.32;90.10;100303.97;5588561;31;33556;-68
2022/08/02 03:05:14;;;;;;;4.68;2.65;;;;;;;19.21;90.52;100310.97;5589433;31;34214;-67
2022/08/02 03:08:17;;;;;;;3.20;2.50;;;;;;;19.21;89.04;100313.66;5588991;31;35501;-68
2022/08/02 03:11:21;;;;;;;3.72;2.80;;;;;;;19.15;89.32;100302.97;5575700;31;34309;-68
2022/08/02 03:14:25;;;;;;;3.10;2.70;;;;;;;19.09;90.08;100297.44;5588884;31;34271;-67
2022/08/02 03:17:42;;;;;;;3.90;2.60;;;;;;;19.06;88.64;100294.41;5588883;31;35387;-68
2022/08/02 03:20:45;;;;;;;4.18;2.75;;;;;;;19.04;88.62;100291.09;5587871;31;32894;-68
2022/08/02 03:23:48;;;;;;;6.20;2.60;;;;;;;18.92;89.23;100287.53;5588823;31;34360;-68
2022/08/02 03:26:51;;;;;;;2.83;2.53;;;;;;;18.96;89.86;100291.41;5588760;31;34926;-68
2022/08/02 03:29:54;;;;;;;3.05;2.75;;;;;;;18.79;90.39;100282.28;5588881;31;34826;-68
2022/08/02 03:32:57;;;;;;;6.85;3.00;;;;;;;18.66;90.84;100297.50;5587895;31;34837;-68
2022/08/02 03:36:07;;;;;;;4.32;2.87;;;;;;;18.64;91.35;100291.53;5587957;31;33738;-68
2022/08/02 03:39:11;;;;;;;7.00;3.10;;;;;;;18.62;91.34;100300.88;5587125;31;33278;-68
2022/08/02 03:42:14;;;;;;;4.62;3.05;;;;;;;18.58;91.69;100297.81;5588598;31;34883;-68
2022/08/02 03:45:18;;;;;;;3.97;2.92;;;;;;;18.62;91.42;100304.38;5588476;31;34372;-67
2022/08/02 03:48:22;;;;;;;4.05;2.80;;;;;;;18.71;91.27;100309.47;5588363;31;35561;-67
2022/08/02 03:51:36;;;;;;;4.80;3.15;;;;;;;18.91;90.20;100313.59;5588394;31;34885;-67
2022/08/02 03:54:39;;;;;;;3.67;2.80;;;;;;;18.93;90.31;100313.34;5587472;31;34351;-67
2022/08/02 03:57:47;;;;;;;4.45;3.00;;;;;;;18.99;90.33;100321.34;5588362;31;32660;-67
2022/08/02 04:00:56;;;;;;;4.10;3.10;;;;;;;19.01;90.54;100321.97;5588154;31;33911;-68
2022/08/02 04:03:59;;;;;;;3.90;3.10;;;;;;;18.99;91.36;100328.59;5588516;31;34137;-68
2022/08/02 04:07:02;;;;;;;4.72;3.30;;;;;;;18.98;92.19;100326.94;5587448;31;32885;-68
2022/08/02 04:10:10;;;;;;;4.78;3.20;;;;;;;19.01;92.21;100327.34;5588130;31;34101;-68
2022/08/02 04:13:12;;;;;;;5.70;3.17;;;;;;;19.02;95.41;100322.78;5589960;31;34311;-68
2022/08/02 04:16:22;;;;;;;3.87;3.05;;;;;;;19.04;95.07;100328.75;5590630;31;34249;-69
2022/08/02 04:19:30;;;;;;;6.78;3.22;;;;;;;19.02;95.92;100337.06;5590637;31;34189;-68
2022/08/02 04:22:56;;;;;;;4.50;3.20;;;;;;;18.92;98.36;100341.28;5590520;31;34584;-68
2022/08/02 04:26:00;;;;;;;5.72;3.10;;;;;;;19.01;95.76;100343.47;5590572;31;34344;-69
2022/08/02 04:29:07;;;;;;;5.00;2.95;;;;;;;19.18;93.43;100349.06;5590688;31;34523;-67
2022/08/02 04:32:09;;;;;;;4.40;2.92;;;;;;;19.27;92.33;100338.81;5590460;31;34287;-68
2022/08/02 04:35:14;;;;;;;4.40;3.30;;;;;;;19.41;90.47;100346.50;5590373;31;34427;-68
2022/08/02 04:38:21;;;;;;;4.53;2.70;;;;;;;19.59;88.52;100344.88;5590384;31;34318;-69
2022/08/02 04:41:36;;;;;;;5.25;2.90;;;;;;;19.76;86.87;100345.87;5590312;31;34343;-68
2022/08/02 04:44:45;;;;;;;3.62;2.70;;;;;;;19.70;86.09;100349.50;5590459;31;34143;-68
2022/08/02 04:47:47;;;;;;;3.28;2.75;;;;;;;19.88;84.14;100355.66;5589228;31;33092;-68
2022/08/02 04:51:05;;;;;;;6.95;3.05;;;;;;;19.98;84.16;100352.41;5590258;31;34289;-68
2022/08/02 04:54:10;;;;;;;3.35;2.90;;;;;;;19.97;84.49;100358.81;5590184;31;35473;-67
2022/08/02 05:00:35;;;;;;;4.35;2.65;;;;;;;19.84;84.07;100359.84;5578598;31;33053;-69
2022/08/02 05:03:37;;;;;;;5.07;2.85;;;;;;;19.96;84.42;100367.94;5589712;31;35542;-67
2022/08/02 05:06:40;;;;;;;7.40;3.03;;;;;;;20.06;85.00;100367.41;5589813;31;34935;-68
2022/08/02 05:09:43;;;;;;;4.18;3.08;;;;;;;20.14;84.16;100356.31;5590065;31;34231;-68
2022/08/02 05:12:46;;;;;;;9.30;3.47;;;;;;;20.01;82.91;100357.31;5590369;31;35372;-69
2022/08/02 05:15:51;;;;;;;6.00;3.22;;;;;;;20.18;82.04;100361.00;5589508;31;34270;-68
2022/08/02 05:18:54;;;;;;;7.78;2.97;;;;;;;20.20;81.12;100364.28;5589963;31;34891;-69
2022/08/02 05:21:57;;;;;;;6.28;3.10;;;;;;;20.35;81.43;100367.38;5590211;31;34102;-68
2022/08/02 05:25:00;;;;;;;12.35;3.60;;;;;;;20.52;79.90;100374.78;5589908;31;34228;-68
2022/08/02 05:28:02;;;;;;;4.32;3.30;;;;;;;20.61;79.82;100378.78;5589761;31;35061;-68
2022/08/02 05:31:11;;;;;;;5.40;2.90;;;;;;;20.80;77.74;100383.00;5589744;31;34583;-68
2022/08/02 05:34:15;;;;;;;5.35;2.80;;;;;;;20.89;77.12;100389.69;5589602;31;34931;-69
2022/08/02 05:37:18;;;;;;;5.10;2.50;;;;;;;20.91;78.09;100394.84;5589381;31;34656;-68
2022/08/02 05:40:22;;;;;;;5.80;2.92;;;;;;;21.08;77.88;100406.56;5589610;31;34220;-68
2022/08/02 05:43:27;;;;;;;3.15;2.50;;;;;;;21.00;75.91;100407.75;5589592;31;34266;-67
2022/08/02 05:46:30;;;;;;;3.97;2.60;;;;;;;21.06;75.16;100403.28;5589726;31;34284;-68
2022/08/02 05:49:33;;;;;;;3.42;2.50;;;;;;;21.18;74.76;100414.91;5589275;31;34545;-67
2022/08/02 05:53:01;;;;;;;4.20;2.60;;;;;;;21.25;73.61;100410.25;5589722;31;34217;-67
2022/08/02 05:56:24;;;;;;;8.98;2.97;;;;;;;21.36;73.02;100405.84;5588822;31;33767;-66
2022/08/02 06:00:09;;;;;;;5.18;2.83;;;;;;;21.48;71.06;100407.50;5588955;31;33339;-66
2022/08/02 06:03:31;;;;;;;4.45;2.40;;;;;;;21.57;71.15;100407.94;5589607;31;34263;-67
2022/08/02 06:06:35;;;;;;;6.25;2.67;;;;;;;21.74;70.14;100406.09;5588758;31;34235;-67
2022/08/02 06:09:40;;;;;;;2.85;2.40;;;;;;;22.01;69.16;100411.81;5589373;31;34898;-67
2022/08/02 06:12:55;;;;;;;4.65;2.60;;;;;;;21.95;68.28;100410.06;5588632;31;32828;-66
2022/08/02 06:15:58;;;;;;;4.03;2.33;;;;;;;22.05;66.86;100421.06;5589398;31;35061;-67
2022/08/02 06:19:03;;;;;;;4.15;2.35;;;;;;;22.09;66.74;100424.91;5588679;31;34614;-66
2022/08/02 06:22:15;;;;;;;5.55;2.17;;;;;;;22.06;64.76;100423.53;5589162;31;34248;-66
2022/08/02 06:25:40;;;;;;;3.37;2.33;;;;;;;22.12;65.44;100420.91;5589039;31;34369;-66
2022/08/02 06:28:54;;;;;;;3.90;2.30;;;;;;;22.38;64.52;100421.13;5588018;31;32987;-66
2022/08/02 06:31:58;;;;;;;2.35;2.10;;;;;;;22.36;64.74;100419.72;5589493;31;34532;-66
2022/08/02 06:35:03;;;;;;;3.20;2.33;;;;;;;22.67;63.83;100421.88;5588545;31;34759;-64
2022/08/02 06:38:08;;;;;;;5.03;2.45;;;;;;;22.95;62.53;100426.38;5588921;31;34174;-65
2022/08/02 06:41:13;;;;;;;3.08;2.15;;;;;;;23.04;62.73;100435.75;5588986;31;34124;-63
2022/08/02 06:44:16;;;;;;;3.47;2.20;;;;;;;22.96;60.91;100430.75;5588316;31;32611;-64
2022/08/02 06:47:39;;;;;;;5.18;2.00;;;;;;;22.77;60.70;100430.19;5587881;31;34264;-64
2022/08/02 06:50:43;;;;;;;4.10;2.30;;;;;;;22.88;60.72;100436.56;5588692;31;34899;-65
2022/08/02 06:53:46;;;;;;;2.92;1.95;;;;;;;23.36;59.24;100435.91;5588867;31;34876;-66
2022/08/02 06:56:49;;;;;;;3.45;2.12;;;;;;;23.72;57.69;100434.53;5589175;31;34532;-64
2022/08/02 06:59:52;;;;;;;3.00;2.22;;;;;;;23.68;57.67;100431.50;5588595;31;34076;-65
2022/08/02 07:02:55;;;;;;;3.05;2.10;;;;;;;23.98;56.55;100431.03;5588226;31;34813;-66
2022/08/02 07:05:58;;;;;;;5.00;2.40;;;;;;;24.21;54.90;100428.03;5589154;31;34883;-64
2022/08/02 07:09:01;;;;;;;3.05;1.85;;;;;;;24.04;56.52;100423.78;5588780;31;34306;-66
2022/08/02 07:12:21;;;;;;;4.03;1.92;;;;;;;24.51;55.12;100430.22;5588716;31;35550;-66
2022/08/02 07:15:24;;;;;;;5.47;2.05;;;;;;;24.79;54.08;100420.94;5588584;31;34165;-66
2022/08/02 07:18:27;;;;;;;3.53;1.90;;;;;;;25.16;53.26;100423.69;5588819;31;34267;-66
2022/08/02 07:21:29;;;;;;;3.12;1.90;;;;;;;25.08;52.61;100430.41;5587507;31;33977;-66
2022/08/02 07:24:55;;;;;;;3.15;2.17;;;;;;;25.21;50.98;100429.16;5588017;31;32740;-66
2022/08/02 07:27:58;;;;;;;8.43;2.05;;;;;;;25.96;49.30;100431.38;5587582;31;32864;-66
2022/08/02 07:31:02;;;;;;;4.05;1.87;;;;;;;26.31;48.93;100438.03;5587609;31;33640;-67
2022/08/02 07:34:05;;;;;;;5.05;2.10;;;;;;;27.60;47.05;100431.91;5588594;31;35491;-66
2022/08/02 07:37:08;;;;;;;6.72;2.40;;;;;;;27.35;46.52;100426.56;5588682;31;35434;-65
2022/08/02 07:40:32;;;;;;;4.18;2.03;;;;;;;28.57;43.80;100428.62;5587082;31;33092;-65
2022/08/02 07:43:35;;;;;;;4.28;1.90;;;;;;;28.60;43.97;100420.69;5588415;31;35554;-66
2022/08/02 07:46:38;;;;;;;11.80;2.00;;;;;;;29.37;41.34;100427.91;5589572;31;34647;-66
2022/08/02 07:49:41;;;;;;;2.75;2.00;;;;;;;28.46;43.60;100431.47;5590547;31;34180;-66
2022/08/02 07:52:46;;;;;;;4.03;2.05;;;;;;;29.77;41.36;100432.03;5590889;31;33778;-66
2022/08/02 07:55:48;;;;;;;5.55;1.77;;;;;;;29.45;41.53;100423.72;5590130;31;34988;-65
2022/08/02 07:58:51;;;;;;;2.50;1.65;;;;;;;30.83;39.78;100421.47;5590387;31;34508;-65
2022/08/02 08:01:54;;;;;;;2.85;1.67;;;;;;;30.39;39.45;100416.41;5589754;31;34667;-66
2022/08/02 08:04:57;;;;;;;3.33;1.77;;;;;;;30.26;39.03;100417.16;5590107;31;34270;-67
2022/08/02 08:08:00;;;;;;;2.95;1.50;;;;;;;31.44;37.62;100410.16;5589104;31;32553;-67
2022/08/02 08:11:03;;;;;;;5.50;1.58;;;;;;;32.73;34.94;100416.03;5589402;31;33127;-67
2022/08/02 08:14:08;;;;;;;3.20;1.73;;;;;;;31.94;34.98;100415.72;5577073;31;33909;-66
2022/08/02 08:17:18;;;;;;;1.87;1.58;;;;;;;30.13;38.70;100413.25;5590466;31;34857;-65
2022/08/02 08:20:21;;;;;;;3.15;1.73;;;;;;;30.40;37.81;100422.72;5590071;31;34513;-66
2022/08/02 08:23:24;;;;;;;3.08;1.60;;;;;;;32.18;34.68;100426.44;5589240;31;32739;-67
2022/08/02 08:26:27;;;;;;;4.82;1.62;;;;;;;33.11;32.31;100425.47;5589408;31;34147;-66
2022/08/02 08:29:30;;;;;;;4.12;1.30;;;;;;;32.59;32.65;100420.78;5589963;31;34895;-65
2022/08/02 08:32:32;;;;;;;3.85;1.30;;;;;;;32.96;31.62;100428.66;5589296;31;34308;-65
2022/08/02 08:35:39;;;;;;;2.50;1.58;;;;;;;33.23;31.86;100433.16;5589168;31;33183;-66
2022/08/02 08:38:41;;;;;;;4.55;1.58;;;;;;;34.76;29.63;100430.94;5589186;31;34397;-66
2022/08/02 08:41:45;;;;;;;3.67;1.23;;;;;;;35.12;29.74;100435.22;5588775;31;33117;-66
2022/08/02 08:44:48;;;;;;;3.83;1.20;;;;;;;35.38;27.10;100432.41;5589895;31;34206;-66
2022/08/02 08:48:00;;;;;;;2.45;1.10;;;;;;;36.25;26.98;100445.38;5589446;31;34813;-66
2022/08/02 08:51:15;;;;;;;2.35;1.10;;;;;;;35.54;27.86;100444.47;5589635;31;34297;-66
2022/08/02 08:54:27;;;;;;;3.08;1.40;;;;;;;35.25;28.04;100434.22;5589323;31;33353;-66
2022/08/02 08:57:30;;;;;;;5.45;1.50;;;;;;;35.74;27.14;100435.47;5589646;31;35480;-66
2022/08/02 09:00:35;;;;;;;4.35;1.40;;;;;;;34.91;26.63;100439.88;5589671;31;34213;-65
2022/08/02 09:03:38;;;;;;;3.67;1.15;;;;;;;35.84;26.40;100442.53;5589524;31;34903;-67
2022/08/02 09:06:47;;;;;;;2.30;1.27;;;;;;;36.95;25.12;100447.13;5589553;31;33707;-67
2022/08/02 09:09:50;;;;;;;5.43;1.33;;;;;;;38.07;22.91;100442.91;5589848;31;34673;-66
2022/08/02 09:13:31;;;;;;;2.87;1.37;;;;;;;36.71;24.79;100443.50;5589635;31;34327;-67
2022/08/02 09:16:47;;;;;;;1.62;1.33;;;;;;;37.88;23.20;100431.62;5589748;31;34045;-67
2022/08/02 09:20:06;;;;;;;2.55;1.20;;;;;;;37.16;24.05;100437.97;5588991;31;34131;-67
2022/08/02 09:23:11;;;;;;;3.70;1.50;;;;;;;36.28;24.66;100433.63;5588709;31;33457;-67
2022/08/02 09:26:19;;;;;;;2.28;1.20;;;;;;;37.37;23.80;100438.69;5589735;31;34426;-67
2022/08/02 09:29:23;;;;;;;1.92;1.25;;;;;;;35.04;26.59;100431.38;5588882;31;32717;-66
2022/08/02 09:32:43;;;;;;;1.80;1.30;;;;;;;36.27;25.07;100437.53;5589953;31;34878;-66
2022/08/02 09:35:57;;;;;;;1.85;1.25;;;;;;;37.38;23.78;100438.31;5589703;31;34223;-66
2022/08/02 09:39:14;;;;;;;1.87;1.20;;;;;;;35.43;25.39;100433.03;5588557;31;33396;-67
2022/08/02 09:42:17;;;;;;;;;;;;;;;35.86;25.78;100438.31;5589878;31;34812;-66
2022/08/02 09:45:20;;;;;;;3.75;1.30;;;;;;;37.73;23.43;100427.59;5589022;31;35067;-66
2022/08/02 09:48:23;;;;;;;3.30;1.20;;;;;;;37.98;22.88;100433.09;5589661;31;34881;-67
2022/08/02 09:51:45;;;;;;;3.35;1.48;;;;;;;39.67;20.69;100427.78;5588920;31;34150;-66
2022/08/02 09:54:49;;;;;;;3.72;1.30;;;;;;;39.47;21.75;100418.59;5588735;31;33261;-68
2022/08/02 09:57:52;;;;;;;1.50;1.27;;;;;;;39.90;20.32;100420.41;5589703;31;35442;-67
2022/08/02 10:00:57;;;;;;;2.97;1.30;;;;;;;37.25;22.88;100419.31;5589674;31;34961;-65
2022/08/02 10:04:04;;;;;;;1.70;1.40;;;;;;;34.94;25.98;100415.19;5589231;31;34247;-67
2022/08/02 10:07:35;;;;;;;4.75;1.20;;;;;;;36.31;25.09;100412.81;5587882;31;34349;-68
2022/08/02 10:10:47;;;;;;;2.03;1.30;;;;;;;38.94;22.05;100412.53;5588427;31;34655;-67
2022/08/02 10:13:51;;;;;;;2.55;1.30;;;;;;;38.79;22.03;100407.72;5589374;31;34181;-68
2022/08/02 10:16:57;;;;;;;3.78;1.00;;;;;;;39.16;21.36;100404.75;5589393;31;34225;-66
2022/08/02 10:20:00;;;;;;;2.97;1.20;;;;;;;38.17;22.56;100397.28;5589472;31;34193;-67
2022/08/02 10:23:12;;;;;;;1.70;1.10;;;;;;;38.49;22.35;100395.47;5576143;31;33902;-66
2022/08/02 10:26:17;;;;;;;2.55;1.23;;;;;;;39.95;20.86;100395.91;5588846;31;34193;-66
2022/08/02 10:30:14;;;;;;;1.85;1.00;;;;;;;39.92;20.31;100391.09;5574332;31;916512;-65
2022/08/02 10:33:18;;;;;;;3.15;1.25;;;;;;;40.27;19.78;100395.81;5583816;31;33490;-66
2022/08/02 10:36:25;;;;;;;1.30;1.00;;;;;;;40.00;20.10;100382.91;5583292;31;32241;-66
2022/08/02 10:39:38;;;;;;;1.98;1.17;;;;;;;39.80;20.37;100385.66;5583744;32;33866;-66
2022/08/02 10:42:41;;;;;;;2.87;1.10;;;;;;;38.98;21.34;100380.13;5583565;31;33931;-66
2022/08/02 10:45:46;;;;;;;1.30;1.00;;;;;;;39.84;20.15;100375.47;5583683;31;32376;-67
2022/08/02 10:49:13;;;;;;;2.33;1.30;;;;;;;40.13;19.82;100371.28;5583648;31;32504;-68
2022/08/02 10:52:35;;;;;;;1.90;1.05;;;;;;;40.74;19.72;100379.66;5583765;31;33299;-67
2022/08/02 10:55:45;;;;;;;1.25;0.93;;;;;;;39.69;20.55;100367.16;5584201;32;32143;-67
2022/08/02 10:59:26;;;;;;;2.05;0.90;;;;;;;40.61;19.45;100371.84;5558126;32;33878;-65
2022/08/02 11:02:43;;;;;;;2.08;1.00;;;;;;;38.19;21.36;100365.31;5584416;32;33753;-65
2022/08/02 11:06:12;;;;;;;2.72;0.80;;;;;;;36.86;22.84;100360.69;5584541;31;33857;-66
2022/08/02 11:09:28;;;;;;;0.95;0.85;;;;;;;36.96;23.01;100360.25;5560151;31;32674;-67
2022/08/02 11:12:59;;;;;;;2.97;1.00;;;;;;;39.26;20.35;100360.59;5583651;32;33367;-65
2022/08/02 11:16:03;;;;;;;1.42;0.90;;;;;;;38.15;21.82;100352.53;5584022;31;33983;-66
2022/08/02 11:19:13;;;;;;;7.85;0.85;;;;;;;39.81;20.19;100362.28;5584147;31;34134;-66
2022/08/02 11:22:18;;;;;;;1.45;0.93;;;;;;;39.63;20.74;100349.97;5584051;31;34601;-68
2022/08/02 11:25:27;;;;;;;2.90;0.80;;;;;;;41.14;19.13;100356.09;5583234;32;32818;-67
2022/08/02 11:28:49;;;;;;;1.85;0.90;;;;;;;39.86;20.56;100347.28;5583894;31;34497;-66
2022/08/02 11:31:52;;;;;;;1.90;0.90;;;;;;;40.73;20.12;100349.41;5583336;32;33881;-65
2022/08/02 11:34:57;;;;;;;1.10;0.80;;;;;;;39.94;20.49;100344.28;5583880;32;34492;-65
2022/08/02 11:38:15;;;;;;;1.12;0.93;;;;;;;36.76;23.37;100329.91;5583148;32;33863;-67
2022/08/02 11:41:19;;;;;;;3.55;0.98;;;;;;;35.46;25.27;100335.78;5571991;32;33842;-66
2022/08/02 11:44:42;;;;;;;1.20;1.00;;;;;;;36.45;24.32;100336.78;5570947;32;34484;-67
2022/08/02 11:47:51;;;;;;;2.87;1.00;;;;;;;39.65;21.48;100342.06;5570975;32;33888;-66
2022/08/02 11:51:08;;;;;;;1.77;0.95;;;;;;;40.24;21.09;100347.31;5557313;32;34403;-67
2022/08/02 11:54:10;;;;;;;1.77;1.02;;;;;;;40.27;20.27;100331.87;5569991;32;32431;-66
2022/08/02 11:57:29;;;;;;;1.30;0.95;;;;;;;41.21;19.04;100337.50;5529703;32;34055;-67
2022/08/02 12:01:09;;;;;;;3.22;0.90;;;;;;;42.13;19.01;100335.16;5529782;32;34114;-67
2022/08/02 12:04:18;;;;;;;1.10;1.00;;;;;;;43.81;17.57;100335.37;5517163;32;32267;-66
2022/08/02 12:07:29;;;;;;;3.22;1.00;;;;;;;41.93;18.60;100331.75;5529911;32;33760;-66
2022/08/02 12:10:46;;;;;;;1.17;0.90;;;;;;;41.07;19.79;100337.28;5529889;32;32248;-68
2022/08/02 12:13:49;;;;;;;3.37;1.00;;;;;;;40.10;20.56;100326.72;5529820;32;33839;-66
2022/08/02 12:20:35;;;;;;;2.05;0.90;;;;;;;40.10;21.38;100327.53;5529866;32;32280;-68
2022/08/02 12:23:42;;;;;;;;;;;;;;;43.75;17.62;100332.94;5529977;32;32480;-67
2022/08/02 12:27:02;;;;;;;2.08;1.00;;;;;;;42.51;18.94;100330.44;5529726;32;34612;-67
2022/08/02 12:30:12;;;;;;;1.35;0.85;;;;;;;42.74;18.80;100320.69;5529452;32;32571;-65
2022/08/02 12:33:16;;;;;;;2.30;1.20;;;;;;;39.56;20.93;100319.25;5529525;32;34220;-66
2022/08/02 12:36:26;;;;;;;2.85;1.10;;;;;;;40.72;20.98;100319.97;5529694;32;33182;-67
2022/08/02 12:39:44;;;;;;;4.10;1.67;;;;;;;44.00;17.01;100312.69;5504154;32;32715;-66
2022/08/02 12:42:49;;;;;;;1.17;1.00;;;;;;;45.80;16.13;100311.84;5529793;32;33697;-66
2022/08/02 12:45:56;;;;;;;2.35;1.10;;;;;;;42.42;18.47;100312.00;5530165;32;33826;-66
2022/08/02 12:48:59;;;;;;;0.95;0.90;;;;;;;43.71;17.73;100309.78;5504412;32;32326;-65
2022/08/02 12:52:22;;;;;;;1.33;1.10;;;;;;;44.66;17.86;100302.84;5528528;32;32540;-66
2022/08/02 12:55:25;;;;;;;1.12;0.95;;;;;;;39.79;21.61;100303.53;5529808;32;32364;-66
2022/08/02 12:58:49;;;;;;;1.60;0.82;;;;;;;36.28;25.19;100309.31;5516380;32;32235;-66
2022/08/02 13:01:52;;;;;;;1.62;0.93;;;;;;;35.98;25.81;100303.06;5529046;32;32974;-65
2022/08/02 13:04:58;;;;;;;1.00;0.77;;;;;;;37.46;24.37;100300.19;5529441;32;35105;-65
2022/08/02 13:08:02;;;;;;;0.90;0.90;;;;;;;41.37;20.30;100290.00;5529389;32;33405;-65
2022/08/02 13:11:05;;;;;;;1.62;0.80;;;;;;;44.21;16.63;100298.75;5529518;32;33952;-65
2022/08/02 13:14:08;;;;;;;4.53;1.00;;;;;;;41.59;18.99;100300.25;5529561;32;33660;-64
2022/08/02 13:17:10;;;;;;;1.23;1.02;;;;;;;36.27;25.23;100296.62;5529407;32;33897;-64
2022/08/02 13:20:16;;;;;;;3.95;1.27;;;;;;;33.94;28.46;100290.72;5529347;32;33879;-64
2022/08/02 13:23:19;;;;;;;1.40;0.93;;;;;;;34.62;28.04;100289.78;5516624;32;33829;-65
2022/08/02 13:26:23;;;;;;;1.70;0.88;;;;;;;34.13;28.42;100287.63;5529240;32;33972;-63
2022/08/02 13:29:32;;;;;;;1.95;1.00;;;;;;;35.26;27.05;100290.47;5516687;32;35264;-65
2022/08/02 13:32:35;;;;;;;1.92;1.08;;;;;;;39.39;22.47;100297.47;5528823;32;32357;-65
2022/08/02 13:35:38;;;;;;;1.60;0.80;;;;;;;39.20;21.86;100291.84;5503535;32;33482;-66
2022/08/02 13:38:41;;;;;;;1.30;0.90;;;;;;;42.26;19.39;100291.91;5528910;32;33205;-67
2022/08/02 13:41:43;;;;;;;2.37;0.90;;;;;;;43.50;17.55;100283.72;5516134;32;33904;-64
2022/08/02 13:44:46;;;;;;;9.25;0.98;;;;;;;40.99;19.36;100274.31;5529236;32;32161;-65
2022/08/02 13:47:49;;;;;;;1.33;0.80;;;;;;;43.85;17.44;100285.84;5528888;32;34015;-65
2022/08/02 13:51:10;;;;;;;2.53;0.90;;;;;;;44.54;16.48;100276.00;5506522;32;33813;-65
2022/08/02 13:54:16;;;;;;;1.58;0.88;;;;;;;47.03;14.79;100272.88;5515006;32;32958;-65
2022/08/02 13:57:19;;;;;;;3.53;0.80;;;;;;;46.84;14.73;100282.66;5528706;32;32818;-64
2022/08/02 14:00:24;;;;;;;1.00;0.60;;;;;;;45.06;15.49;100275.63;5528826;32;33074;-66
2022/08/02 14:03:37;;;;;;;0.70;0.70;;;;;;;46.87;14.14;100267.78;5515817;32;32745;-67
2022/08/02 14:07:00;;;;;;;0.80;0.80;;;;;;;44.71;15.57;100268.84;5568658;32;32551;-65
2022/08/02 14:10:04;;;;;;;0.85;0.60;;;;;;;43.81;16.15;100273.88;5569064;32;34209;-64
2022/08/02 14:13:07;;;;;;;3.47;0.70;;;;;;;40.30;18.93;100268.00;5568944;32;34006;-63
2022/08/02 14:16:10;;;;;;;1.15;0.70;;;;;;;36.32;22.94;100249.44;5567641;32;34171;-64
2022/08/02 14:19:13;;;;;;;1.75;0.50;;;;;;;39.18;20.33;100253.34;5568866;32;35146;-66
2022/08/02 14:22:17;;;;;;;1.67;0.62;;;;;;;40.83;18.84;100254.19;5567562;32;32715;-64
2022/08/02 14:25:20;;;;;;;3.90;0.65;;;;;;;41.05;18.78;100250.59;5568808;32;33730;-63
2022/08/02 14:28:23;;;;;;;0.85;0.50;;;;;;;41.38;18.71;100244.28;5568267;32;34023;-65
2022/08/02 14:31:28;;;;;;;0.73;0.50;;;;;;;45.16;15.46;100258.00;5567409;32;34084;-64
2022/08/02 14:34:31;;;;;;;1.08;0.82;;;;;;;41.18;17.45;100248.38;5568419;32;34241;-64
2022/08/02 14:37:34;;;;;;;1.30;0.60;;;;;;;36.15;22.58;100241.38;5567621;32;33258;-64
2022/08/02 14:40:37;;;;;;;0.60;0.50;;;;;;;34.83;24.54;100243.03;5567358;32;33451;-64
2022/08/02 14:47:04;;;;;;;1.12;0.60;;;;;;;34.25;25.61;100246.47;5568840;32;33959;-63